EDT,Max TemperatureF,Mean TemperatureF,Min TemperatureF,Max Dew PointF,MeanDew PointF,Min DewpointF,Max Humidity, Mean Humidity, Min Humidity, Max Sea Level PressureIn, Mean Sea Level PressureIn, Min Sea Level PressureIn, Max VisibilityMiles, Mean VisibilityMiles, Min VisibilityMiles, Max Wind SpeedMPH, Mean Wind SpeedMPH, Max Gust SpeedMPH,PrecipitationIn, CloudCover, Events, WindDirDegrees
2013-9-1,79,74,68,70,68,66,100,87,74,29.89,29.85,29.82,10,8,1,10,3,,0.00,6,,356
2013-9-2,79,71,63,70,66,63,100,84,67,29.85,29.78,29.70,10,10,1,9,4,17,0.64,4,Thunderstorm,166
2013-9-3,72,67,61,63,59,54,100,81,61,29.85,29.78,29.74,10,8,0,10,5,16,0.00,7,,231
2013-9-4,75,67,59,57,54,50,90,68,46,29.93,29.90,29.85,10,10,10,12,6,17,0.01,5,,250
2013-9-5,63,54,45,57,46,37,93,68,43,30.19,30.03,29.88,10,10,8,12,6,18,0.11,4,,349
2013-9-6,64,51,37,46,39,34,89,63,36,30.27,30.20,30.11,10,10,10,10,6,,0.00,0,,157
2013-9-7,70,57,43,54,47,43,100,71,42,30.10,30.00,29.88,10,10,10,9,3,,0.01,4,,173
2013-9-8,61,52,43,55,45,37,93,69,44,30.12,29.93,29.80,10,10,10,20,8,29,0.00,4,,347
2013-9-9,66,52,37,46,41,36,92,66,40,30.23,30.16,30.09,10,10,10,10,6,,0.00,0,,149
2013-9-10,73,63,52,68,59,46,93,85,77,30.11,30.05,30.01,10,10,5,14,5,17,0.28,7,,131
2013-9-11,90,77,64,73,69,64,93,75,56,30.08,30.02,29.94,10,8,2,12,5,17,0.59,1,Thunderstorm,173
2013-9-12,82,73,64,70,65,63,100,81,62,29.98,29.81,29.67,10,10,5,8,4,20,0.65,4,Thunderstorm,161
2013-9-13,64,58,52,63,55,46,97,90,83,29.86,29.72,29.63,10,10,5,13,8,20,0.15,8,,334
2013-9-14,59,54,48,52,48,45,93,80,67,30.09,29.97,29.85,10,10,8,9,5,18,0.00,7,,326
2013-9-15,64,53,41,52,47,39,100,78,56,30.17,30.11,30.05,10,9,0,9,3,,0.00,1,,176
2013-9-16,55,46,36,52,44,34,100,75,50,30.32,30.13,30.03,10,10,8,15,6,22,0.06,5,,360
2013-9-17,61,47,32,45,38,30,100,76,51,30.47,30.39,30.33,10,10,10,10,5,,0.00,0,,125
2013-9-18,68,53,37,48,41,36,93,67,40,30.35,30.25,30.15,10,10,9,8,5,,0.00,0,,159
2013-9-19,73,57,41,55,47,39,93,66,38,30.18,30.12,30.05,10,10,10,10,5,,0.00,0,,131
2013-9-20,79,62,45,57,50,45,93,64,35,30.12,30.03,29.96,10,10,7,17,7,,0.00,0,,155
2013-9-21,73,64,54,61,53,43,93,63,33,29.98,29.81,29.63,10,10,10,21,12,33,0.13,2,,146
2013-9-22,63,55,46,61,49,39,93,75,57,29.90,29.73,29.59,10,10,9,15,8,18,0.40,7,,279
2013-9-23,54,45,36,41,37,36,92,76,59,30.06,29.99,29.90,10,10,10,14,6,20,0.00,5,,333
2013-9-24,61,53,45,46,40,37,93,72,51,30.04,29.97,29.90,10,10,10,10,5,16,0.00,5,,323
2013-9-25,64,51,37,48,44,37,100,76,51,30.01,29.95,29.91,10,10,2,14,6,21,0.00,1,,25
2013-9-26,63,51,39,48,44,37,96,76,55,30.17,30.08,30.01,10,10,9,12,4,17,0.00,2,,10
2013-9-27,59,49,39,48,45,39,96,84,72,30.31,30.25,30.17,10,10,10,8,4,,0.00,4,,126
2013-9-28,72,56,39,54,47,39,100,76,51,30.37,30.31,30.27,10,10,4,14,5,,0.00,0,,108
2013-9-29,72,58,43,54,48,43,93,70,47,30.27,30.17,30.08,10,10,7,13,7,,0.00,1,,133
2013-9-30,72,59,45,54,47,41,93,69,44,30.11,30.05,29.98,10,10,10,12,6,,0.00,0,,123